Wax, Kentucky
Current Conditions -  °F | °C
As of 11:08 PM on Wednesday 26 Nov 2014 (Local Time) from KFTK Reporting Station
Light Snow Light Snow  
Wind Chill:   Ceiling: 1400
Heat Index:   Visibility: 6mi
Dew Point:   Wind: 2mph
Humidity: 87%   Direction: 310°NW
Pressure: 30.03"   Gusts: NA
Location:  37.4262°N, 86.1465°W
Report Text: KFTK 270508Z AUTO 31002KT 6SM R18/5000FT -SN BR OVC014 02/00 A3003 RMK AO2
Loading
Personal Weather Stations






























Interactive Weather Map New forecast layout! Learn more

10-Day Weather Forecast

Advertisements
Track Severe Weather on mobile